createdAt,value
2023-03-21T00:01:17.294Z,2.20
2023-03-21T00:05:14.996Z,2.47
2023-03-21T00:08:57.908Z,2.97
2023-03-21T00:12:43.441Z,2.15
2023-03-21T00:16:30.941Z,2.22
2023-03-21T00:20:15.181Z,1.98
2023-03-21T00:23:57.476Z,2.53
2023-03-21T00:27:56.889Z,2.38
2023-03-21T00:31:41.438Z,2.42
2023-03-21T00:35:54.041Z,2.97
2023-03-21T00:39:25.094Z,2.50
2023-03-21T00:43:06.838Z,2.13
2023-03-21T00:47:05.976Z,2.50
2023-03-21T00:50:52.416Z,2.50
2023-03-21T00:54:38.414Z,2.38
2023-03-21T00:58:21.501Z,2.42
2023-03-21T01:02:07.692Z,2.30
2023-03-21T01:06:06.815Z,2.15
2023-03-21T01:09:50.036Z,2.20
2023-03-21T01:17:18.416Z,2.30
2023-03-21T01:21:01.819Z,2.53
2023-03-21T01:28:42.967Z,2.17
2023-03-21T01:32:26.913Z,2.45
2023-03-21T01:36:23.909Z,2.13
2023-03-21T01:40:12.724Z,2.05
2023-03-21T01:43:54.592Z,1.77
2023-03-21T01:47:36.409Z,2.00
2023-03-21T01:51:20.057Z,2.15
2023-03-21T01:55:07.716Z,2.00
2023-03-21T01:58:52.406Z,2.17
2023-03-21T02:02:38.588Z,2.03
2023-03-21T02:06:32.007Z,2.58
2023-03-21T02:14:06.157Z,2.30
2023-03-21T02:18:38.091Z,3.40
2023-03-21T02:22:36.826Z,2.22
2023-03-21T02:26:41.133Z,4.00
2023-03-21T02:30:52.023Z,2.53
2023-03-21T02:34:53.133Z,2.90
2023-03-21T02:38:43.404Z,3.03
2023-03-21T02:42:30.527Z,2.85
2023-03-21T02:46:26.159Z,3.58
2023-03-21T02:50:18.467Z,3.50
2023-03-21T02:58:16.577Z,3.85
2023-03-21T03:01:58.723Z,4.07
2023-03-21T03:05:47.819Z,3.92
2023-03-21T03:09:51.545Z,3.38
2023-03-21T03:14:31.533Z,4.10
2023-03-21T03:18:29.965Z,4.32
2023-03-21T03:22:23.570Z,4.68
2023-03-21T03:26:08.753Z,4.05
2023-03-21T03:29:52.419Z,4.63
2023-03-21T03:33:38.110Z,4.90
2023-03-21T03:37:26.402Z,3.90
2023-03-21T03:41:19.573Z,3.80
2023-03-21T03:45:02.592Z,3.72
2023-03-21T03:48:55.451Z,3.00
2023-03-21T03:52:55.814Z,3.20
2023-03-21T03:56:40.234Z,3.78
2023-03-21T04:00:22.074Z,3.13
2023-03-21T04:04:12.986Z,2.75
2023-03-21T04:07:55.321Z,2.53
2023-03-21T04:11:37.072Z,2.22
2023-03-21T04:15:22.088Z,2.22
2023-03-21T04:19:04.104Z,2.25
2023-03-21T04:22:46.187Z,2.50
2023-03-21T04:26:32.947Z,2.20
2023-03-21T04:30:15.364Z,2.05
2023-03-21T04:33:58.348Z,2.20
2023-03-21T04:37:40.139Z,2.20
2023-03-21T04:41:21.835Z,2.25
2023-03-21T04:45:04.324Z,2.42
2023-03-21T04:48:47.259Z,2.22
2023-03-21T04:52:28.992Z,2.17
2023-03-21T04:56:14.129Z,2.08
2023-03-21T04:59:56.132Z,2.53
2023-03-21T05:03:40.297Z,2.25
2023-03-21T05:07:26.445Z,2.30
2023-03-21T05:11:08.235Z,2.42
2023-03-21T05:14:50.378Z,2.55
2023-03-21T05:18:34.845Z,2.95
2023-03-21T05:22:19.477Z,2.67
2023-03-21T05:26:01.218Z,3.70
2023-03-21T05:29:42.937Z,3.35
2023-03-21T05:33:24.753Z,4.05
2023-03-21T05:37:06.505Z,4.15
2023-03-21T05:40:51.848Z,3.42
2023-03-21T05:44:33.657Z,3.30
2023-03-21T05:48:15.704Z,3.50
2023-03-21T05:51:57.512Z,3.92
2023-03-21T05:55:39.635Z,3.65
2023-03-21T05:59:21.561Z,3.80
2023-03-21T06:03:03.426Z,3.25
2023-03-21T06:06:45.324Z,3.95
2023-03-21T06:10:27.210Z,3.53
2023-03-21T06:14:09.346Z,3.13
2023-03-21T06:17:51.088Z,3.83
2023-03-21T06:21:32.898Z,3.20
2023-03-21T06:25:15.061Z,3.83
2023-03-21T06:28:57.538Z,3.38
2023-03-21T06:32:39.872Z,3.53
2023-03-21T06:36:21.681Z,4.10
2023-03-21T06:40:05.099Z,3.78
2023-03-21T06:43:48.460Z,4.82
2023-03-21T06:47:30.256Z,3.78
2023-03-21T06:51:14.266Z,4.10
2023-03-21T06:54:56.283Z,4.43
2023-03-21T06:58:38.285Z,3.88
2023-03-21T07:02:20.639Z,4.75
2023-03-21T07:06:11.809Z,4.17
2023-03-21T07:09:53.579Z,4.53
2023-03-21T07:13:35.667Z,4.88
2023-03-21T07:17:17.536Z,3.83
2023-03-21T07:20:59.398Z,3.28
2023-03-21T07:24:41.252Z,3.78
2023-03-21T07:28:23.382Z,3.35
2023-03-21T07:32:05.545Z,3.25
2023-03-21T07:35:47.286Z,3.30
2023-03-21T07:39:29.748Z,3.50
2023-03-21T07:43:11.605Z,3.50
2023-03-21T07:46:53.290Z,2.67
2023-03-21T07:50:35.309Z,2.10
2023-03-21T07:54:19.273Z,2.20
2023-03-21T07:58:04.583Z,2.60
2023-03-21T08:01:46.472Z,2.40
2023-03-21T08:05:33.500Z,2.50
2023-03-21T08:09:15.217Z,2.47
2023-03-21T08:12:56.943Z,2.45
2023-03-21T08:16:38.687Z,3.45
2023-03-21T08:20:22.106Z,2.30
2023-03-21T08:24:03.916Z,2.25
2023-03-21T08:27:46.802Z,2.17
2023-03-21T08:31:28.636Z,2.33
2023-03-21T08:35:13.277Z,2.35
2023-03-21T08:38:57.249Z,3.10
2023-03-21T08:42:40.621Z,2.17
2023-03-21T08:46:22.406Z,4.13
2023-03-21T08:50:06.868Z,2.33
2023-03-21T08:53:51.464Z,3.03
2023-03-21T08:57:33.433Z,2.22
2023-03-21T09:01:15.710Z,2.47
2023-03-21T09:04:59.079Z,2.30
2023-03-21T09:08:42.258Z,2.33
2023-03-21T09:16:06.132Z,1.83
2023-03-21T09:19:49.737Z,1.87
2023-03-21T09:23:31.865Z,1.60
2023-03-21T09:27:17.439Z,1.53
2023-03-21T09:31:00.511Z,1.92
2023-03-21T09:34:42.530Z,1.50
2023-03-21T09:38:30.237Z,3.13
2023-03-21T09:42:20.969Z,2.00
2023-03-21T09:46:11.377Z,2.00
2023-03-21T09:50:16.395Z,1.67
2023-03-21T09:54:03.791Z,1.70
2023-03-21T09:57:49.361Z,1.90
2023-03-21T10:01:41.888Z,2.17
2023-03-21T10:05:30.346Z,1.80
2023-03-21T10:09:24.460Z,1.92
2023-03-21T10:13:15.811Z,2.10
2023-03-21T10:17:22.239Z,1.80
2023-03-21T10:21:05.986Z,1.88
2023-03-21T10:24:47.813Z,2.33
2023-03-21T10:28:46.304Z,1.70
2023-03-21T10:32:34.540Z,2.28
2023-03-21T10:36:25.908Z,2.30
2023-03-21T10:40:15.432Z,1.85
2023-03-21T10:44:16.955Z,1.80
2023-03-21T10:47:59.193Z,2.00
2023-03-21T10:51:41.095Z,1.33
2023-03-21T10:55:28.733Z,1.48
2023-03-21T10:59:20.591Z,1.85
2023-03-21T11:03:03.768Z,1.55
2023-03-21T11:06:59.641Z,1.73
2023-03-21T11:10:52.331Z,1.33
2023-03-21T11:14:38.391Z,1.67
2023-03-21T11:18:25.998Z,1.70
2023-03-21T11:22:08.795Z,1.65
2023-03-21T11:25:51.142Z,1.63
2023-03-21T11:29:45.566Z,1.67
2023-03-21T11:33:33.019Z,1.20
2023-03-21T11:37:32.333Z,1.25
2023-03-21T11:41:24.255Z,1.50
2023-03-21T11:45:23.312Z,1.17
2023-03-21T11:49:05.113Z,1.08
2023-03-21T11:53:27.153Z,2.03
2023-03-21T11:57:44.276Z,1.20
2023-03-21T12:01:46.791Z,1.40
2023-03-21T12:05:37.711Z,1.10
2023-03-21T12:09:40.263Z,1.30
2023-03-21T12:13:45.239Z,1.53
2023-03-21T12:17:43.040Z,1.20
2023-03-21T12:21:55.006Z,1.35
2023-03-21T12:25:46.888Z,1.23
2023-03-21T12:29:44.893Z,1.30
2023-03-21T12:34:00.684Z,1.42
2023-03-21T12:38:05.435Z,1.40
2023-03-21T12:42:18.639Z,1.60
2023-03-21T12:46:25.894Z,1.48
2023-03-21T12:50:32.850Z,1.85
2023-03-21T12:54:32.384Z,1.70
2023-03-21T12:58:20.010Z,1.40
2023-03-21T13:02:27.861Z,1.60
2023-03-21T13:06:24.171Z,1.92
2023-03-21T13:10:17.946Z,1.80
2023-03-21T13:14:08.755Z,1.60
2023-03-21T13:18:23.066Z,2.05
2023-03-21T13:22:29.926Z,2.20
2023-03-21T13:26:12.463Z,1.80
2023-03-21T13:30:14.072Z,1.80
2023-03-21T13:33:59.601Z,1.83
2023-03-21T13:37:48.726Z,1.80
2023-03-21T13:41:38.813Z,1.35
2023-03-21T13:45:30.738Z,1.92
2023-03-21T13:49:27.073Z,1.92
2023-03-21T13:53:20.931Z,1.50
2023-03-21T13:57:05.651Z,1.48
2023-03-21T14:01:13.456Z,2.20
2023-03-21T14:05:07.615Z,1.60
2023-03-21T14:08:49.910Z,2.08
2023-03-21T14:12:39.684Z,2.20
2023-03-21T14:16:28.428Z,2.20
2023-03-21T14:20:18.589Z,2.22
2023-03-21T14:24:12.593Z,2.60
2023-03-21T14:27:57.168Z,2.78
2023-03-21T14:31:39.672Z,2.47
2023-03-21T14:35:22.099Z,7.50
2023-03-21T14:39:07.536Z,2.85
2023-03-21T14:42:51.162Z,2.70
2023-03-21T14:46:33.735Z,3.00
2023-03-21T14:50:15.885Z,2.95
2023-03-21T14:53:57.793Z,2.93
2023-03-21T14:57:39.736Z,2.53
2023-03-21T15:01:32.165Z,3.23
2023-03-21T15:05:30.498Z,2.50
2023-03-21T15:09:16.684Z,2.70
2023-03-21T15:13:01.507Z,3.10
2023-03-21T15:16:43.462Z,2.60
2023-03-21T15:20:28.551Z,3.20
2023-03-21T15:24:17.622Z,3.40
2023-03-21T15:28:01.014Z,2.33
2023-03-21T15:31:43.573Z,3.28
2023-03-21T15:35:36.057Z,2.92
2023-03-21T15:39:21.639Z,3.20
2023-03-21T15:43:18.977Z,2.83
2023-03-21T15:47:00.955Z,2.80
2023-03-21T15:51:16.564Z,3.30
2023-03-21T15:54:59.211Z,2.83
2023-03-21T15:58:44.720Z,2.95
2023-03-21T16:02:30.308Z,3.10
2023-03-21T16:06:12.643Z,3.15
2023-03-21T16:10:01.048Z,2.17
2023-03-21T16:13:43.060Z,2.75
2023-03-21T16:17:39.539Z,2.53
2023-03-21T16:21:29.576Z,2.60
2023-03-21T16:25:11.475Z,2.75
2023-03-21T16:28:53.746Z,2.60
2023-03-21T16:32:35.767Z,2.75
2023-03-21T16:36:30.165Z,3.70
2023-03-21T16:40:31.371Z,3.20
2023-03-21T16:44:13.210Z,3.05
2023-03-21T16:47:55.465Z,3.08
2023-03-21T16:51:37.243Z,2.58
2023-03-21T16:55:19.841Z,2.40
2023-03-21T16:59:01.668Z,2.75
2023-03-21T17:02:43.434Z,2.78
2023-03-21T17:06:28.513Z,2.30
2023-03-21T17:10:31.418Z,2.25
2023-03-21T17:14:17.776Z,3.95
2023-03-21T17:17:59.584Z,2.60
2023-03-21T17:21:41.354Z,3.42
2023-03-21T17:25:23.508Z,5.55
2023-03-21T17:29:05.561Z,4.57
2023-03-21T17:32:48.707Z,3.58
2023-03-21T17:40:20.786Z,4.45
2023-03-21T17:44:03.112Z,3.40
2023-03-21T17:47:45.256Z,4.20
2023-03-21T17:51:30.245Z,3.20
2023-03-21T17:55:13.378Z,3.97
2023-03-21T17:58:55.368Z,4.45
2023-03-21T18:02:37.336Z,3.50
2023-03-21T18:06:21.657Z,4.72
2023-03-21T18:10:04.573Z,3.65
2023-03-21T18:13:46.906Z,3.88
2023-03-21T18:17:29.068Z,8.23
2023-03-21T18:21:11.174Z,3.90
2023-03-21T18:24:53.469Z,3.65
2023-03-21T18:28:41.390Z,4.57
2023-03-21T18:32:23.878Z,4.00
2023-03-21T18:36:07.745Z,3.63
2023-03-21T18:39:49.723Z,5.38
2023-03-21T18:47:33.837Z,3.72
2023-03-21T18:51:17.643Z,3.83
2023-03-21T18:54:59.734Z,3.60
2023-03-21T18:58:41.725Z,2.95
2023-03-21T19:02:23.601Z,3.75
2023-03-21T19:06:06.475Z,3.35
2023-03-21T19:10:05.853Z,3.83
2023-03-21T19:13:53.345Z,3.22
2023-03-21T19:21:38.435Z,3.55
2023-03-21T19:25:20.298Z,4.05
2023-03-21T19:29:02.049Z,3.45
2023-03-21T19:32:44.418Z,4.07
2023-03-21T19:36:26.727Z,3.57
2023-03-21T19:40:12.428Z,3.30
2023-03-21T19:43:59.329Z,3.55
2023-03-21T19:47:44.841Z,3.50
2023-03-21T19:51:30.171Z,3.70
2023-03-21T19:55:14.842Z,3.10
2023-03-21T19:58:56.649Z,5.78
2023-03-21T20:02:38.689Z,3.47
2023-03-21T20:06:23.387Z,4.80
2023-03-21T20:10:09.072Z,3.13
2023-03-21T20:13:50.997Z,3.17
2023-03-21T20:17:33.448Z,3.85
2023-03-21T20:21:18.126Z,3.75
2023-03-21T20:25:08.009Z,2.85
2023-03-21T20:29:21.707Z,3.10
2023-03-21T20:32:58.569Z,4.22
2023-03-21T20:36:43.442Z,3.67
2023-03-21T20:40:25.567Z,3.53
2023-03-21T20:44:41.742Z,3.83
2023-03-21T20:48:10.141Z,3.60
2023-03-21T20:55:54.686Z,3.42
2023-03-21T20:59:36.491Z,4.17
2023-03-21T21:03:20.793Z,3.80
2023-03-21T21:07:02.889Z,3.03
2023-03-21T21:11:24.252Z,3.63
2023-03-21T21:14:48.325Z,3.88
2023-03-21T21:18:30.321Z,3.57
2023-03-21T21:22:12.018Z,3.95
2023-03-21T21:25:54.740Z,4.32
2023-03-21T21:29:37.190Z,3.58
2023-03-21T21:33:20.947Z,5.28
2023-03-21T21:37:03.129Z,3.88
2023-03-21T21:40:48.988Z,4.55
2023-03-21T21:44:31.437Z,4.65
2023-03-21T21:48:13.939Z,3.67
2023-03-21T21:51:56.400Z,4.55
2023-03-21T21:55:39.153Z,4.32
2023-03-21T21:59:22.177Z,4.18
2023-03-21T22:06:47.887Z,3.60
2023-03-21T22:10:32.847Z,4.47
2023-03-21T22:14:14.832Z,4.47
2023-03-21T22:17:56.769Z,4.05
2023-03-21T22:21:38.654Z,4.70
2023-03-21T22:25:20.432Z,3.63
2023-03-21T22:29:02.469Z,4.00
2023-03-21T22:33:02.452Z,3.97
2023-03-21T22:36:50.658Z,4.40
2023-03-21T22:40:32.771Z,4.60
2023-03-21T22:44:16.827Z,4.22
2023-03-21T22:48:00.932Z,3.72
2023-03-21T22:51:44.504Z,3.08
2023-03-21T22:55:27.681Z,3.63
2023-03-21T23:02:52.274Z,3.88
2023-03-21T23:06:35.666Z,3.90
2023-03-21T23:10:18.400Z,3.97
2023-03-21T23:14:07.768Z,3.95
2023-03-21T23:17:52.793Z,3.78
2023-03-21T23:21:37.303Z,4.20
2023-03-21T23:25:21.265Z,3.20
2023-03-21T23:29:07.915Z,3.47
2023-03-21T23:32:49.844Z,3.40
2023-03-21T23:36:31.812Z,3.53
2023-03-21T23:40:15.469Z,3.60
2023-03-21T23:43:57.601Z,3.70
2023-03-21T23:47:40.227Z,4.03
2023-03-21T23:51:22.604Z,4.55
2023-03-21T23:55:08.824Z,3.67
2023-03-21T23:58:51.392Z,3.58
